Rockaway Park, New York
Current Conditions -  °F | °C
As of 8:51 AM on Sunday 25 Jan 2015 (Local Time) from KJFK Reporting Station
Broken Clouds Broken Clouds  
Wind Chill: 28°   Ceiling: 6000
Heat Index: 37°   Visibility: 10mi
Dew Point: 29°   Wind: 16mph
Humidity: 73%   Direction: 250°WSW
Pressure: 29.73"   Gusts: NA
Location:  40.58°N, 73.84°W
Report Text: KJFK 251351Z 25014KT 10SM BKN060 03/M02 A2973 RMK AO2 SLP068 T00281017 $
Loading
Personal Weather Stations






























Interactive Weather Map New forecast layout! Learn more

10-Day Weather Forecast

Advertisements
Track Severe Weather on mobile